Main page
METAR-TAF:

METAR-TAF

Airports :

Henri Coandă International Airport

Bucharest, Romania

latitude: 44-33N, longitude: 026-06E, elevation: 95 m

Current weather observation

The report was made 31 minutes ago, at 20:30 UTC
Wind 6 kt from the West/Southwest
Temperature 10°C
Humidity 53%
Pressure 1018 hPa
Visibility 10 km or more
no clouds below 1500 m and no cumulonimbus

METAR: LROP 092030Z 25006KT CAVOK 10/01 Q1018 NOSIG

Time: 00:01 (21:01 UTC)

Forecast

The report was made 4 hours and 1 minutes ago, at 17:00 UTC
Forecast valid from 09 at 18 UTC to 10 at 18 UTC
Wind 4 kt from variable directions
Visibility 10 km or more
no clouds below 1500 m and no cumulonimbus

TAF: LROP 091700Z 0918/1018 VRB04KT CAVOK

Weather observations and forecasts of more than 4000 airports (METAR and TAF reports).

The available stations are represented by yellow and red dots on the map.

Hover mouse over dot to see the name of the station.

Then click to see weather observations and forecasts.

To change the map : click on the green buttons with a black cross to zoom in, on the green button with a dash to zoom out, or on the green arrows for adjacent maps.


METAR-TAF: